Time;durP1;ratioP1;P1;durP2;ratioP2;P2;SDS_P1;SDS_P2;PMS_P1;PMS_P2;Temp;Humidity;BMP_temperature;BMP_pressure;BME280_temperature;BME280_humidity;BME280_pressure;Samples;Min_cycle;Max_cycle;Signal;HPM_P1;HPM_P2
2023/07/07 00:02:07;;;;;;;5.30;3.15;;;14.70;99.90;;;;;;5025063;28;20030;-30
2023/07/07 00:04:33;;;;;;;6.30;3.38;;;14.60;99.90;;;;;;5026168;28;20033;-33
2023/07/07 00:06:59;;;;;;;4.68;3.00;;;14.60;99.90;;;;;;5023669;28;20025;-32
2023/07/07 00:09:27;;;;;;;5.53;3.20;;;14.60;99.90;;;;;;5020321;28;20067;-30
2023/07/07 00:11:53;;;;;;;5.35;3.40;;;14.40;99.90;;;;;;5022900;28;20037;-38
2023/07/07 00:14:19;;;;;;;4.85;2.88;;;14.30;99.90;;;;;;5023532;28;20403;-41
2023/07/07 00:16:45;;;;;;;5.80;2.80;;;14.20;99.90;;;;;;5021653;28;20099;-41
2023/07/07 00:19:11;;;;;;;7.13;3.60;;;14.30;99.90;;;;;;5022837;28;20458;-39
2023/07/07 00:21:38;;;;;;;5.93;3.15;;;14.10;99.90;;;;;;5019469;28;20030;-42
2023/07/07 00:24:05;;;;;;;4.85;3.13;;;14.20;99.90;;;;;;5021645;28;20904;-39
2023/07/07 00:26:32;;;;;;;4.45;3.15;;;14.10;99.90;;;;;;5020447;28;20113;-42
2023/07/07 00:28:58;;;;;;;3.85;3.10;;;14.00;99.90;;;;;;5017236;28;20030;-40
2023/07/07 00:31:25;;;;;;;4.28;3.20;;;14.10;99.90;;;;;;5019300;28;20065;-40
2023/07/07 00:33:50;;;;;;;4.45;3.60;;;14.10;99.90;;;;;;5021657;28;20029;-41
2023/07/07 00:36:16;;;;;;;5.25;3.28;;;14.10;99.90;;;;;;5024912;28;20550;-41
2023/07/07 00:38:42;;;;;;;5.85;3.78;;;14.10;99.90;;;;;;5023714;28;20083;-41
2023/07/07 00:41:08;;;;;;;6.85;3.45;;;13.90;99.90;;;;;;5024802;28;20030;-39
2023/07/07 00:43:35;;;;;;;4.75;3.05;;;13.90;99.90;;;;;;5020382;28;20380;-41
2023/07/07 00:46:01;;;;;;;4.97;3.15;;;14.00;99.90;;;;;;5020913;28;20026;-40
2023/07/07 00:48:33;;;;;;;4.32;3.00;;;14.00;99.90;;;;;;5020168;28;20021;-42
2023/07/07 00:51:03;;;;;;;5.68;3.17;;;13.90;99.90;;;;;;5024786;28;20514;-40
2023/07/07 00:53:30;;;;;;;5.82;3.28;;;13.90;99.90;;;;;;5022184;28;20040;-41
2023/07/07 00:56:01;;;;;;;5.47;3.50;;;13.90;99.90;;;;;;5027846;28;20029;-38
2023/07/07 00:58:28;;;;;;;3.70;3.13;;;13.90;99.90;;;;;;5022767;28;20025;-41
2023/07/07 01:01:12;;;;;;;5.80;3.20;;;13.70;99.90;;;;;;5023191;28;20046;-38
2023/07/07 01:03:42;;;;;;;5.07;3.30;;;13.80;99.90;;;;;;5026194;28;20021;-42
2023/07/07 01:06:12;;;;;;;5.00;2.80;;;13.80;99.90;;;;;;5025343;28;20411;-42
2023/07/07 01:08:42;;;;;;;4.68;2.75;;;13.80;99.90;;;;;;5025390;28;20120;-40
2023/07/07 01:11:08;;;;;;;5.13;3.42;;;13.80;99.90;;;;;;5025777;28;20033;-41
2023/07/07 01:13:34;;;;;;;5.90;3.33;;;13.80;99.90;;;;;;5024677;28;20577;-41
2023/07/07 01:16:16;;;;;;;3.03;2.72;;;13.60;99.90;;;;;;5021469;28;20525;-39
2023/07/07 01:18:48;;;;;;;5.20;3.47;;;13.50;99.90;;;;;;5021933;28;20063;-38
2023/07/07 01:21:29;;;;;;;4.53;3.17;;;13.60;99.90;;;;;;5024645;28;20057;-38
2023/07/07 01:24:43;;;;;;;4.85;3.17;;;13.60;99.90;;;;;;5023346;28;20379;-40
2023/07/07 01:27:26;;;;;;;4.97;3.20;;;13.60;99.90;;;;;;5019203;28;20044;-41
2023/07/07 01:30:23;;;;;;;5.05;2.92;;;13.60;99.90;;;;;;5021402;28;20069;-40
2023/07/07 01:32:49;;;;;;;5.13;3.10;;;13.50;99.90;;;;;;5021923;28;20103;-41
2023/07/07 01:35:20;;;;;;;4.18;3.20;;;13.60;99.90;;;;;;5027660;28;20033;-36
2023/07/07 01:37:57;;;;;;;6.32;3.65;;;13.40;99.90;;;;;;5025271;28;20548;-41
2023/07/07 01:40:45;;;;;;;5.70;3.65;;;13.30;99.90;;;;;;5019904;28;20040;-40
2023/07/07 01:43:21;;;;;;;4.63;3.42;;;13.20;99.90;;;;;;5004407;28;20061;-41
2023/07/07 01:46:13;;;;;;;6.00;3.50;;;13.20;99.90;;;;;;5024599;28;20290;-42
2023/07/07 01:48:51;;;;;;;4.15;3.00;;;13.30;99.90;;;;;;5023202;28;20076;-41
2023/07/07 01:51:20;;;;;;;5.07;3.30;;;13.30;99.90;;;;;;5023024;28;20064;-42
2023/07/07 01:53:50;;;;;;;8.52;3.25;;;13.20;99.90;;;;;;5022255;28;20025;-42
2023/07/07 01:56:21;;;;;;;5.70;3.35;;;13.20;99.90;;;;;;5026270;28;20613;-41
2023/07/07 01:58:47;;;;;;;5.65;2.70;;;13.20;99.90;;;;;;5023758;28;20022;-42
2023/07/07 02:01:13;;;;;;;5.40;3.55;;;13.20;99.90;;;;;;5025476;28;20041;-40
2023/07/07 02:03:39;;;;;;;4.75;2.92;;;13.10;99.90;;;;;;5025098;28;20036;-41
2023/07/07 02:06:04;;;;;;;4.47;3.03;;;13.10;99.90;;;;;;5025838;28;20071;-39
2023/07/07 02:08:31;;;;;;;4.38;2.78;;;13.10;99.90;;;;;;5019714;28;20764;-42
2023/07/07 02:10:57;;;;;;;4.10;3.05;;;13.00;99.90;;;;;;5020882;28;20030;-33
2023/07/07 02:13:22;;;;;;;4.50;3.03;;;12.90;99.90;;;;;;5022322;28;20053;-35
2023/07/07 02:15:48;;;;;;;5.28;3.47;;;12.90;99.90;;;;;;5023258;28;20463;-34
2023/07/07 02:18:13;;;;;;;4.93;3.33;;;12.80;99.90;;;;;;5025460;28;20029;-33
2023/07/07 02:20:39;;;;;;;6.13;3.53;;;12.80;99.90;;;;;;5022848;28;20041;-33
2023/07/07 02:23:04;;;;;;;5.65;3.47;;;12.80;99.90;;;;;;5023017;28;20087;-32
2023/07/07 02:25:30;;;;;;;4.40;2.97;;;12.90;99.90;;;;;;5021315;28;20087;-32
2023/07/07 02:27:55;;;;;;;6.20;3.60;;;12.80;99.90;;;;;;5021446;28;20037;-34
2023/07/07 02:30:21;;;;;;;4.68;3.10;;;12.80;99.90;;;;;;5019060;28;20037;-33
2023/07/07 02:32:47;;;;;;;5.03;3.50;;;12.70;99.90;;;;;;5021784;28;20544;-33
2023/07/07 02:35:13;;;;;;;5.68;3.45;;;12.70;99.90;;;;;;5024566;28;20742;-33
2023/07/07 02:37:39;;;;;;;5.07;3.38;;;12.70;99.90;;;;;;5021724;28;20041;-33
2023/07/07 02:40:05;;;;;;;6.00;3.63;;;12.60;99.90;;;;;;5022861;28;20025;-33
2023/07/07 02:42:31;;;;;;;7.13;3.70;;;12.50;99.90;;;;;;5022074;28;20462;-33
2023/07/07 02:44:57;;;;;;;5.38;3.30;;;12.60;99.90;;;;;;5022710;28;20104;-34
2023/07/07 02:47:22;;;;;;;5.15;3.55;;;12.60;99.90;;;;;;5022921;28;20083;-33
2023/07/07 02:49:48;;;;;;;5.13;3.45;;;12.50;99.90;;;;;;5022544;28;20067;-33
2023/07/07 02:52:14;;;;;;;5.22;3.53;;;12.40;99.90;;;;;;5022743;28;20153;-36
2023/07/07 02:54:39;;;;;;;5.05;3.72;;;12.40;99.90;;;;;;5022037;28;20037;-33
2023/07/07 02:57:06;;;;;;;4.60;2.95;;;12.30;99.90;;;;;;5024187;28;20060;-34
2023/07/07 02:59:31;;;;;;;6.55;3.10;;;12.40;99.90;;;;;;5018993;28;20132;-33
2023/07/07 03:01:57;;;;;;;5.07;3.63;;;12.40;99.90;;;;;;5021194;28;20124;-32
2023/07/07 03:04:24;;;;;;;7.00;3.83;;;12.40;99.90;;;;;;5016686;28;20026;-33
2023/07/07 03:06:50;;;;;;;4.85;3.58;;;12.30;99.90;;;;;;5022875;28;20080;-33
2023/07/07 03:09:16;;;;;;;7.43;3.88;;;12.40;99.90;;;;;;5023182;28;20375;-33
2023/07/07 03:11:41;;;;;;;4.63;3.20;;;12.40;99.90;;;;;;5018988;28;20037;-36
2023/07/07 03:14:07;;;;;;;5.88;3.35;;;12.30;99.90;;;;;;5024159;28;20028;-35
2023/07/07 03:16:33;;;;;;;5.63;3.80;;;12.40;99.90;;;;;;5023352;28;20045;-34
2023/07/07 03:19:03;;;;;;;5.15;3.13;;;12.30;99.90;;;;;;5019987;28;20040;-34
2023/07/07 03:21:29;;;;;;;5.53;3.22;;;12.30;99.90;;;;;;5016286;28;20033;-39
2023/07/07 03:23:56;;;;;;;4.40;2.85;;;12.20;99.90;;;;;;5022027;28;20067;-41
2023/07/07 03:26:23;;;;;;;5.18;2.92;;;12.20;99.90;;;;;;5022148;28;20041;-41
2023/07/07 03:28:49;;;;;;;2.67;2.40;;;12.20;99.90;;;;;;5025861;28;20056;-41
2023/07/07 03:31:23;;;;;;;3.95;2.45;;;12.20;99.90;;;;;;5022957;28;20087;-42
2023/07/07 03:33:57;;;;;;;5.57;2.67;;;12.30;99.90;;;;;;5020727;28;20918;-41
2023/07/07 03:36:30;;;;;;;5.82;2.63;;;12.20;99.90;;;;;;5021206;28;20030;-41
2023/07/07 03:38:56;;;;;;;5.65;3.00;;;12.20;99.90;;;;;;5021507;28;20060;-41
2023/07/07 03:41:25;;;;;;;4.45;3.03;;;12.30;99.90;;;;;;5023616;28;20056;-39
2023/07/07 03:43:53;;;;;;;6.43;3.30;;;12.30;99.90;;;;;;5023872;28;20037;-39
2023/07/07 03:46:22;;;;;;;4.35;2.90;;;12.20;99.90;;;;;;5022304;28;20022;-40
2023/07/07 03:48:48;;;;;;;5.38;3.00;;;12.20;99.90;;;;;;5019287;28;20049;-42
2023/07/07 03:51:16;;;;;;;5.60;2.67;;;12.20;99.90;;;;;;5017835;28;20411;-42
2023/07/07 03:53:42;;;;;;;3.95;2.90;;;12.20;99.90;;;;;;5020700;28;20104;-39
2023/07/07 03:56:08;;;;;;;4.32;3.25;;;12.30;99.90;;;;;;5019904;28;20075;-42
2023/07/07 03:58:34;;;;;;;5.25;3.25;;;12.30;99.90;;;;;;5020885;28;20037;-39
2023/07/07 04:01:01;;;;;;;5.63;3.30;;;12.40;99.90;;;;;;5020375;28;20052;-39
2023/07/07 04:03:27;;;;;;;3.53;2.63;;;12.30;99.90;;;;;;5019633;28;20022;-42
2023/07/07 04:05:55;;;;;;;3.88;3.03;;;12.30;99.90;;;;;;5024220;28;20026;-39
2023/07/07 04:08:23;;;;;;;3.75;2.30;;;12.20;99.90;;;;;;5027021;28;20038;-41
2023/07/07 04:11:09;;;;;;;2.58;2.38;;;12.10;99.90;;;;;;5024300;28;20076;-42
2023/07/07 04:13:37;;;;;;;3.67;2.80;;;11.90;99.90;;;;;;5018800;28;20109;-38
2023/07/07 04:16:09;;;;;;;3.15;2.47;;;12.00;99.90;;;;;;5021897;28;20041;-41
2023/07/07 04:18:36;;;;;;;4.75;2.95;;;12.20;99.90;;;;;;5026901;28;20037;-41
2023/07/07 04:21:07;;;;;;;4.13;2.80;;;12.30;99.90;;;;;;5026689;28;20044;-40
2023/07/07 04:23:35;;;;;;;4.82;3.08;;;12.40;99.90;;;;;;5010629;28;20090;-37
2023/07/07 04:26:01;;;;;;;4.17;2.90;;;12.50;99.90;;;;;;5023270;28;20029;-40
2023/07/07 04:28:29;;;;;;;4.75;2.88;;;12.60;99.90;;;;;;5022738;28;20030;-42
2023/07/07 04:30:57;;;;;;;4.20;3.00;;;12.50;99.90;;;;;;5022389;28;20057;-41
2023/07/07 04:33:24;;;;;;;5.47;3.15;;;12.50;99.90;;;;;;5025379;28;20041;-39
2023/07/07 04:35:54;;;;;;;4.35;3.03;;;12.50;99.90;;;;;;5028871;28;20048;-41
2023/07/07 04:38:22;;;;;;;4.03;3.60;;;12.60;99.90;;;;;;5026627;28;20038;-41
2023/07/07 04:40:47;;;;;;;5.90;3.50;;;12.70;99.90;;;;;;5026135;28;20036;-42
2023/07/07 04:43:13;;;;;;;7.18;3.38;;;12.80;99.90;;;;;;5020468;28;20406;-39
2023/07/07 04:45:39;;;;;;;6.30;3.75;;;13.00;99.90;;;;;;5025990;28;20018;-42
2023/07/07 04:48:05;;;;;;;4.88;3.45;;;13.10;99.90;;;;;;5022255;28;20364;-41
2023/07/07 04:50:33;;;;;;;7.18;3.95;;;13.30;99.90;;;;;;5025723;28;20395;-38
2023/07/07 04:52:58;;;;;;;6.03;3.40;;;13.40;99.90;;;;;;5021429;28;20045;-38
2023/07/07 04:55:24;;;;;;;8.18;3.83;;;13.50;99.90;;;;;;5024348;28;20037;-41
2023/07/07 04:57:50;;;;;;;5.65;3.63;;;13.60;99.90;;;;;;5023562;28;20076;-41
2023/07/07 05:00:16;;;;;;;5.38;3.40;;;13.70;99.90;;;;;;5018281;28;20084;-41
2023/07/07 05:02:41;;;;;;;6.00;3.50;;;13.80;99.90;;;;;;5020539;28;20044;-39
2023/07/07 05:05:07;;;;;;;5.55;4.25;;;13.90;99.90;;;;;;5021429;28;20087;-36
2023/07/07 05:07:33;;;;;;;7.53;4.32;;;14.00;99.90;;;;;;5021682;28;20018;-41
2023/07/07 05:09:58;;;;;;;4.63;3.47;;;14.10;99.90;;;;;;5025630;28;20036;-41
2023/07/07 05:12:24;;;;;;;8.30;4.45;;;14.20;99.90;;;;;;5022751;28;20680;-40
2023/07/07 05:14:52;;;;;;;6.80;3.92;;;14.20;99.90;;;;;;5023713;28;20044;-37
2023/07/07 05:17:17;;;;;;;7.00;3.97;;;14.40;99.90;;;;;;5025923;28;20104;-42
2023/07/07 05:19:43;;;;;;;5.15;3.75;;;14.40;99.90;;;;;;5022611;28;20164;-38
2023/07/07 05:22:08;;;;;;;5.88;3.60;;;14.40;99.90;;;;;;5027765;28;20038;-39
2023/07/07 05:24:35;;;;;;;5.55;3.70;;;14.50;99.90;;;;;;5019651;28;20014;-41
2023/07/07 05:27:01;;;;;;;5.60;3.90;;;14.50;99.90;;;;;;5022646;28;20109;-41
2023/07/07 05:29:26;;;;;;;5.63;4.32;;;14.70;99.90;;;;;;5022155;28;20776;-42
2023/07/07 05:31:52;;;;;;;5.40;3.67;;;14.80;99.90;;;;;;5019372;28;20066;-41
2023/07/07 05:34:19;;;;;;;5.55;3.78;;;14.80;99.90;;;;;;5021247;28;20163;-41
2023/07/07 05:36:44;;;;;;;6.15;4.25;;;14.90;99.90;;;;;;5022262;28;20040;-38
2023/07/07 05:39:10;;;;;;;6.22;3.80;;;14.90;99.90;;;;;;5023595;28;20029;-42
2023/07/07 05:41:36;;;;;;;8.60;4.47;;;15.00;99.90;;;;;;5022834;28;20041;-32
2023/07/07 05:44:01;;;;;;;7.15;4.70;;;15.10;99.90;;;;;;5026668;28;20060;-32
2023/07/07 05:46:27;;;;;;;7.65;4.88;;;15.10;99.90;;;;;;5022231;28;20049;-31
2023/07/07 05:48:52;;;;;;;9.32;4.80;;;15.20;99.90;;;;;;5026733;28;20033;-34
2023/07/07 05:51:19;;;;;;;9.43;5.10;;;15.30;99.90;;;;;;5026131;28;20627;-31
2023/07/07 05:53:45;;;;;;;7.78;4.93;;;15.40;99.90;;;;;;5027804;28;20034;-31
2023/07/07 05:56:17;;;;;;;8.82;5.30;;;15.50;99.90;;;;;;5027419;28;20040;-31
2023/07/07 05:58:43;;;;;;;8.10;5.30;;;15.70;99.90;;;;;;5022900;28;20094;-32
2023/07/07 06:01:10;;;;;;;8.32;5.07;;;15.70;99.90;;;;;;5023830;28;20517;-32
2023/07/07 06:03:39;;;;;;;9.05;5.00;;;15.80;99.90;;;;;;5025229;28;20464;-31
2023/07/07 06:06:04;;;;;;;8.50;5.05;;;16.10;99.90;;;;;;5022395;28;20028;-32
2023/07/07 06:08:31;;;;;;;10.20;5.10;;;16.30;99.90;;;;;;5024763;28;20375;-31
2023/07/07 06:10:56;;;;;;;9.30;5.30;;;16.40;99.90;;;;;;5023132;28;20026;-30
2023/07/07 06:13:27;;;;;;;7.93;5.18;;;16.50;99.90;;;;;;5023869;28;20037;-34
2023/07/07 06:15:53;;;;;;;8.63;5.47;;;16.50;99.90;;;;;;5021598;28;20041;-31
2023/07/07 06:18:19;;;;;;;8.32;5.05;;;16.60;99.90;;;;;;5025311;28;20021;-32
2023/07/07 06:20:48;;;;;;;9.05;4.97;;;16.70;99.90;;;;;;5024853;28;20029;-31
2023/07/07 06:23:14;;;;;;;7.07;4.63;;;16.90;99.90;;;;;;5026067;28;20114;-33
2023/07/07 06:25:40;;;;;;;7.45;5.00;;;17.10;99.90;;;;;;5026391;28;20063;-31
2023/07/07 06:28:06;;;;;;;9.45;5.15;;;17.30;99.90;;;;;;5023987;28;20088;-32
2023/07/07 06:30:31;;;;;;;11.57;4.97;;;17.30;99.90;;;;;;5024104;28;20033;-31
2023/07/07 06:32:58;;;;;;;7.35;4.60;;;17.40;99.90;;;;;;5027541;28;20021;-31
2023/07/07 06:35:25;;;;;;;9.63;4.30;;;17.60;99.90;;;;;;5020833;28;20040;-34
2023/07/07 06:37:51;;;;;;;6.72;4.53;;;17.80;99.90;;;;;;5024624;28;20036;-31
2023/07/07 06:40:16;;;;;;;8.82;4.95;;;18.10;99.90;;;;;;5021725;28;20026;-31
2023/07/07 06:42:42;;;;;;;6.30;4.15;;;18.30;99.90;;;;;;5022845;28;20034;-31
2023/07/07 06:45:08;;;;;;;8.10;4.80;;;18.50;99.90;;;;;;5020021;28;20030;-32
2023/07/07 06:47:34;;;;;;;6.45;5.00;;;18.60;99.90;;;;;;5027118;28;20029;-32
2023/07/07 06:49:59;;;;;;;7.32;5.03;;;18.70;99.90;;;;;;5023020;28;20052;-31
2023/07/07 06:52:25;;;;;;;8.55;4.97;;;18.90;99.90;;;;;;5025016;28;20468;-41
2023/07/07 06:54:52;;;;;;;7.55;4.50;;;19.10;99.90;;;;;;5024561;28;20511;-42
2023/07/07 06:57:18;;;;;;;8.73;4.35;;;19.20;99.90;;;;;;5026103;28;20391;-42
2023/07/07 06:59:43;;;;;;;6.88;4.25;;;19.50;99.90;;;;;;4983025;28;1073365;-39
2023/07/07 07:02:13;;;;;;;6.57;4.20;;;19.80;99.90;;;;;;5019001;28;20033;-40
2023/07/07 07:04:39;;;;;;;6.72;3.78;;;20.00;99.90;;;;;;5026613;28;20443;-42
2023/07/07 07:07:07;;;;;;;6.20;4.47;;;20.10;99.90;;;;;;5023538;28;20085;-42
2023/07/07 07:09:32;;;;;;;5.85;4.03;;;20.40;99.90;;;;;;5023040;28;20843;-39
2023/07/07 07:11:58;;;;;;;8.00;3.63;;;20.60;99.90;;;;;;5023111;28;20057;-42
2023/07/07 07:14:24;;;;;;;7.88;4.70;;;20.70;99.90;;;;;;5019843;28;20021;-39
2023/07/07 07:16:49;;;;;;;6.78;3.80;;;20.80;99.90;;;;;;5024374;28;20045;-41
2023/07/07 07:19:15;;;;;;;5.65;3.38;;;20.90;99.90;;;;;;5020794;28;20064;-41
2023/07/07 07:21:41;;;;;;;6.43;3.70;;;21.00;99.90;;;;;;5022698;28;20025;-39
2023/07/07 07:24:06;;;;;;;5.30;3.33;;;21.40;99.90;;;;;;5020456;28;20967;-39
2023/07/07 07:26:32;;;;;;;4.75;3.05;;;21.80;99.90;;;;;;5021289;28;20414;-41
2023/07/07 07:28:57;;;;;;;5.75;3.58;;;22.00;99.90;;;;;;5017975;28;20057;-42
2023/07/07 07:31:23;;;;;;;8.88;3.88;;;22.20;99.90;;;;;;5019266;28;20475;-39
2023/07/07 07:33:52;;;;;;;7.03;3.90;;;22.30;99.90;;;;;;5016608;28;20042;-41
2023/07/07 07:36:17;;;;;;;7.15;3.42;;;21.90;99.90;;;;;;5016258;28;20079;-42
2023/07/07 07:38:43;;;;;;;8.07;3.92;;;21.90;99.90;;;;;;5018260;28;20060;-38
2023/07/07 07:41:09;;;;;;;5.07;3.38;;;22.00;99.90;;;;;;5015884;28;20033;-41
2023/07/07 07:43:34;;;;;;;5.38;3.38;;;22.30;99.90;;;;;;5021639;28;20034;-41
2023/07/07 07:46:00;;;;;;;6.18;3.53;;;22.50;99.90;;;;;;5024557;28;20034;-41
2023/07/07 07:48:25;;;;;;;5.80;3.65;;;22.70;99.90;;;;;;5026361;28;20678;-41
2023/07/07 07:50:51;;;;;;;6.70;3.53;;;22.60;99.90;;;;;;5022161;28;20935;-38
2023/07/07 07:53:16;;;;;;;5.75;3.53;;;22.70;99.90;;;;;;5022389;28;20033;-41
2023/07/07 07:55:42;;;;;;;5.18;3.65;;;22.80;99.90;;;;;;5023090;28;20030;-40
2023/07/07 07:58:08;;;;;;;5.63;3.35;;;22.90;99.90;;;;;;5025477;28;20030;-42
2023/07/07 08:00:34;;;;;;;5.18;3.25;;;23.10;99.90;;;;;;5006887;28;20104;-41
2023/07/07 08:03:00;;;;;;;6.60;3.35;;;23.00;99.90;;;;;;5020728;28;20062;-41
2023/07/07 08:05:26;;;;;;;5.20;3.35;;;23.10;99.90;;;;;;5022792;28;20060;-41
2023/07/07 08:07:52;;;;;;;5.65;3.58;;;23.30;99.90;;;;;;5017316;28;20061;-39
2023/07/07 08:10:17;;;;;;;5.43;3.67;;;23.40;99.90;;;;;;5024172;28;20407;-41
2023/07/07 08:12:43;;;;;;;4.43;3.13;;;23.40;99.90;;;;;;5019962;28;20060;-34
2023/07/07 08:15:11;;;;;;;5.32;3.67;;;23.50;99.90;;;;;;5021687;28;20061;-41
2023/07/07 08:17:37;;;;;;;5.57;3.50;;;23.70;99.90;;;;;;5021389;28;20055;-41
2023/07/07 08:20:05;;;;;;;6.38;3.38;;;23.70;99.90;;;;;;5019502;28;20037;-40
2023/07/07 08:22:30;;;;;;;5.85;3.67;;;23.90;99.90;;;;;;5023136;28;20048;-41
2023/07/07 08:24:58;;;;;;;4.80;3.30;;;24.20;99.90;;;;;;5021611;28;20026;-41
2023/07/07 08:27:25;;;;;;;6.75;3.45;;;24.40;99.90;;;;;;5027575;28;20044;-38
2023/07/07 08:29:51;;;;;;;6.45;3.55;;;24.20;99.90;;;;;;5018223;28;20633;-42
2023/07/07 08:32:23;;;;;;;5.18;3.53;;;24.00;99.90;;;;;;5021016;28;20046;-41
2023/07/07 08:34:51;;;;;;;4.80;3.22;;;23.90;99.90;;;;;;5018561;28;20030;-38
2023/07/07 08:37:17;;;;;;;5.45;3.17;;;23.90;99.90;;;;;;5027330;28;20029;-42
2023/07/07 08:39:44;;;;;;;6.57;3.60;;;24.30;99.90;;;;;;5026628;28;20033;-42
2023/07/07 08:42:30;;;;;;;5.35;3.25;;;24.30;99.90;;;;;;5023564;28;20079;-42
2023/07/07 08:44:58;;;;;;;5.10;3.38;;;24.30;99.90;;;;;;5020971;28;20042;-33
2023/07/07 08:47:47;;;;;;;4.72;3.45;;;24.30;99.90;;;;;;5020992;28;20021;-38
2023/07/07 08:50:35;;;;;;;5.30;3.25;;;24.50;99.90;;;;;;5023444;28;20600;-39
2023/07/07 08:53:10;;;;;;;3.95;3.40;;;24.50;99.90;;;;;;5023442;28;20049;-42
2023/07/07 08:56:01;;;;;;;6.93;3.80;;;24.50;99.90;;;;;;5024251;28;20026;-39
2023/07/07 08:58:35;;;;;;;5.25;3.60;;;24.40;99.90;;;;;;4995507;28;20095;-42
2023/07/07 09:01:32;;;;;;;6.47;4.10;;;24.50;99.90;;;;;;5021212;28;20057;-40
2023/07/07 09:04:19;;;;;;;7.28;3.70;;;24.60;99.90;;;;;;5022242;28;20146;-42
2023/07/07 09:07:03;;;;;;;5.03;3.55;;;24.60;99.90;;;;;;5018839;28;20133;-41
2023/07/07 09:09:51;;;;;;;4.10;3.47;;;24.70;99.90;;;;;;5023766;28;20029;-41
2023/07/07 09:13:05;;;;;;;5.97;3.33;;;24.90;99.90;;;;;;5025961;28;20083;-31
2023/07/07 09:15:36;;;;;;;5.05;3.28;;;25.00;99.90;;;;;;5022675;28;20033;-37
2023/07/07 09:18:26;;;;;;;6.30;4.13;;;25.50;99.90;;;;;;5028065;28;20131;-31
2023/07/07 09:20:59;;;;;;;4.97;3.42;;;25.60;99.90;;;;;;5025569;28;20065;-33
2023/07/07 09:23:34;;;;;;;7.15;3.60;;;25.40;99.90;;;;;;5025204;28;20422;-35
2023/07/07 09:26:02;;;;;;;16.25;4.28;;;25.40;99.90;;;;;;5022150;28;20014;-32
2023/07/07 09:28:36;;;;;;;7.57;3.90;;;25.40;99.90;;;;;;5024908;28;20484;-31
2023/07/07 09:31:25;;;;;;;4.47;3.35;;;25.50;99.90;;;;;;5028614;28;20042;-32
2023/07/07 09:33:52;;;;;;;6.50;4.13;;;25.60;99.90;;;;;;5020928;28;20035;-33
2023/07/07 09:36:26;;;;;;;5.97;3.92;;;25.40;99.90;;;;;;5024812;28;20034;-37
2023/07/07 09:39:04;;;;;;;5.43;3.60;;;25.40;99.90;;;;;;5025620;28;20044;-31
2023/07/07 09:41:37;;;;;;;;;;;25.50;99.90;;;;;;5027036;28;20526;-31
2023/07/07 09:44:11;;;;;;;5.38;3.88;;;25.60;99.90;;;;;;5024793;28;19914;-33
2023/07/07 09:47:19;;;;;;;6.47;3.92;;;25.70;99.90;;;;;;5024485;28;20113;-31
2023/07/07 09:49:59;;;;;;;5.70;3.70;;;25.60;99.90;;;;;;5005825;28;20080;-31
2023/07/07 09:52:34;;;;;;;5.13;3.55;;;25.50;99.90;;;;;;5025970;28;20067;-31
2023/07/07 09:55:01;;;;;;;4.68;3.47;;;25.40;99.90;;;;;;5022718;28;20486;-31
2023/07/07 09:57:38;;;;;;;4.68;3.80;;;25.50;99.90;;;;;;5025137;28;20036;-31
2023/07/07 10:00:05;;;;;;;5.47;3.83;;;25.60;99.90;;;;;;5023188;28;20136;-37
2023/07/07 10:02:31;;;;;;;5.53;3.50;;;25.70;99.90;;;;;;5025187;28;20507;-31
2023/07/07 10:05:01;;;;;;;5.10;4.10;;;25.70;99.90;;;;;;5024425;28;20020;-31
2023/07/07 10:07:38;;;;;;;9.15;4.13;;;25.70;99.90;;;;;;5022315;28;20054;-34
2023/07/07 10:10:06;;;;;;;6.65;3.63;;;25.80;99.90;;;;;;5021726;28;20029;-32
2023/07/07 10:12:32;;;;;;;8.02;3.60;;;25.80;99.90;;;;;;5024346;28;20033;-35
2023/07/07 10:14:58;;;;;;;5.20;3.70;;;26.00;99.90;;;;;;5025525;28;21286;-32
2023/07/07 10:17:29;;;;;;;8.05;3.92;;;26.10;99.90;;;;;;5021811;28;20040;-34
2023/07/07 10:19:58;;;;;;;6.05;3.80;;;26.30;99.90;;;;;;5022208;28;20572;-32
2023/07/07 10:22:24;;;;;;;5.57;3.72;;;26.10;99.90;;;;;;5022536;28;20037;-31
2023/07/07 10:24:50;;;;;;;6.55;4.05;;;26.20;99.90;;;;;;5025636;28;20040;-31
2023/07/07 10:27:22;;;;;;;5.05;3.72;;;26.40;99.90;;;;;;5028777;28;20091;-31
2023/07/07 10:29:49;;;;;;;4.85;3.60;;;26.20;99.90;;;;;;5026922;28;20492;-31
2023/07/07 10:32:24;;;;;;;6.15;3.90;;;26.30;99.90;;;;;;5024603;28;20041;-33
2023/07/07 10:34:54;;;;;;;7.43;3.75;;;26.40;99.90;;;;;;5023825;28;20364;-33
2023/07/07 10:37:28;;;;;;;6.40;3.90;;;26.70;99.90;;;;;;5023090;28;20095;-37
2023/07/07 10:39:56;;;;;;;6.20;3.58;;;26.80;99.90;;;;;;5026238;28;20508;-32
2023/07/07 10:42:27;;;;;;;6.13;3.95;;;26.50;99.90;;;;;;5029214;28;20523;-32
2023/07/07 10:44:54;;;;;;;6.05;4.10;;;26.90;99.90;;;;;;5023078;28;20049;-31
2023/07/07 10:47:25;;;;;;;6.22;4.10;;;26.80;99.90;;;;;;5027660;28;20037;-31
2023/07/07 10:49:51;;;;;;;6.28;4.20;;;26.70;99.90;;;;;;5027050;28;20037;-32
2023/07/07 10:52:45;;;;;;;6.10;4.18;;;26.60;99.90;;;;;;5025949;28;20100;-33
2023/07/07 10:55:51;;;;;;;5.38;4.05;;;26.50;99.90;;;;;;5021063;28;20029;-31
2023/07/07 10:58:31;;;;;;;6.82;4.30;;;26.50;99.90;;;;;;5023139;28;20453;-31
2023/07/07 11:01:12;;;;;;;6.15;4.13;;;26.50;99.90;;;;;;5021055;28;20042;-32
2023/07/07 11:03:51;;;;;;;8.10;4.32;;;26.70;99.90;;;;;;5023968;28;20483;-32
2023/07/07 11:06:22;;;;;;;6.68;4.10;;;26.80;99.90;;;;;;5025138;28;20029;-32
2023/07/07 11:09:17;;;;;;;5.57;4.10;;;26.90;99.90;;;;;;5025453;28;20022;-31
2023/07/07 11:12:17;;;;;;;5.40;4.05;;;27.10;99.90;;;;;;5025139;28;20025;-30
2023/07/07 11:14:48;;;;;;;6.75;4.05;;;27.20;99.90;;;;;;5027386;28;20026;-32
2023/07/07 11:17:38;;;;;;;7.85;4.55;;;27.40;99.90;;;;;;5025807;28;20769;-31
2023/07/07 11:20:17;;;;;;;7.35;4.28;;;27.00;99.90;;;;;;5024796;28;20132;-32
2023/07/07 11:23:00;;;;;;;6.22;4.15;;;26.90;99.90;;;;;;5019968;28;20041;-30
2023/07/07 11:26:01;;;;;;;7.07;4.28;;;27.10;99.90;;;;;;5020873;28;20040;-32
2023/07/07 11:28:45;;;;;;;6.68;4.18;;;27.30;99.90;;;;;;5027611;28;20033;-34
2023/07/07 11:31:38;;;;;;;9.52;5.07;;;27.20;99.90;;;;;;5020596;28;20044;-33
2023/07/07 11:34:28;;;;;;;6.47;4.10;;;27.00;99.90;;;;;;5022743;28;21186;-34
2023/07/07 11:37:11;;;;;;;6.57;4.57;;;26.90;99.90;;;;;;5021980;28;20029;-35
2023/07/07 11:40:08;;;;;;;6.55;4.32;;;26.90;99.90;;;;;;5019593;28;20033;-32
2023/07/07 11:42:57;;;;;;;6.43;4.00;;;27.10;99.90;;;;;;5024016;28;20028;-33
2023/07/07 11:45:57;;;;;;;6.32;4.25;;;27.70;99.90;;;;;;5023237;28;20517;-34
2023/07/07 11:49:13;;;;;;;7.55;4.15;;;27.70;99.90;;;;;;5015083;28;20022;-33
2023/07/07 11:51:55;;;;;;;6.07;4.47;;;27.40;99.90;;;;;;4936965;28;20078;-35
2023/07/07 11:54:35;;;;;;;7.85;4.20;;;27.20;99.90;;;;;;5025769;28;20056;-37
2023/07/07 11:57:18;;;;;;;14.20;5.35;;;27.00;99.90;;;;;;5020652;28;20598;-34
2023/07/07 12:00:26;;;;;;;6.43;4.07;;;27.10;99.90;;;;;;5019688;28;20057;-35
2023/07/07 12:02:55;;;;;;;8.57;4.38;;;27.60;99.90;;;;;;5017928;28;20041;-33
2023/07/07 12:05:34;;;;;;;7.05;3.90;;;27.70;99.90;;;;;;5022240;28;20030;-32
2023/07/07 12:08:10;;;;;;;6.20;4.07;;;28.00;99.90;;;;;;5018998;28;20026;-32
2023/07/07 12:10:49;;;;;;;7.07;4.65;;;28.20;99.90;;;;;;5020849;28;20387;-33
2023/07/07 12:13:33;;;;;;;8.55;4.47;;;28.50;99.90;;;;;;5023785;28;20075;-32
2023/07/07 12:16:27;;;;;;;7.65;4.35;;;28.00;99.90;;;;;;5020649;28;20368;-35
2023/07/07 12:19:20;;;;;;;7.35;4.72;;;27.60;99.90;;;;;;5019827;28;20042;-34
2023/07/07 12:21:49;;;;;;;6.82;4.38;;;27.50;99.90;;;;;;5001907;28;20025;-33
2023/07/07 12:24:20;;;;;;;7.63;4.28;;;27.50;99.90;;;;;;5017821;28;20057;-38
2023/07/07 12:26:58;;;;;;;6.78;4.57;;;27.90;99.90;;;;;;5024010;28;20347;-33
2023/07/07 12:29:24;;;;;;;7.43;4.80;;;28.10;99.90;;;;;;5025311;28;20048;-36
2023/07/07 12:31:50;;;;;;;7.90;4.80;;;28.20;99.90;;;;;;5026521;28;20099;-33
2023/07/07 12:34:21;;;;;;;5.97;4.10;;;28.00;99.90;;;;;;5025379;28;20038;-32
2023/07/07 12:36:47;;;;;;;9.45;5.07;;;27.90;99.90;;;;;;5025710;28;20037;-32
2023/07/07 12:39:12;;;;;;;6.60;4.35;;;27.80;99.90;;;;;;5024110;28;20025;-32
2023/07/07 12:41:38;;;;;;;8.98;4.45;;;27.80;99.90;;;;;;5021694;28;20037;-41
2023/07/07 12:44:05;;;;;;;9.48;4.97;;;28.00;99.90;;;;;;5020700;28;20083;-38
2023/07/07 12:46:36;;;;;;;7.97;4.78;;;28.00;99.90;;;;;;5022204;28;20061;-42
2023/07/07 12:49:16;;;;;;;8.35;4.65;;;28.00;99.90;;;;;;5026783;28;20037;-41
2023/07/07 12:51:41;;;;;;;7.53;4.65;;;28.00;99.90;;;;;;5003086;28;20626;-36
2023/07/07 12:54:27;;;;;;;10.43;4.65;;;28.00;99.90;;;;;;5022620;28;20060;-40
2023/07/07 12:57:03;;;;;;;7.57;4.95;;;28.00;99.90;;;;;;5024567;28;20523;-41
2023/07/07 12:59:40;;;;;;;6.32;4.60;;;28.00;99.90;;;;;;5025345;28;20050;-42
2023/07/07 13:02:19;;;;;;;7.03;4.22;;;28.40;99.90;;;;;;5026402;28;20045;-42
2023/07/07 13:05:09;;;;;;;7.63;4.85;;;28.20;99.90;;;;;;5023254;28;20037;-41
2023/07/07 13:07:39;;;;;;;7.72;4.90;;;28.10;99.90;;;;;;5008659;28;20041;-42
2023/07/07 13:10:30;;;;;;;7.03;4.63;;;27.90;99.90;;;;;;5024859;28;20029;-41